createdAt,value
2023-02-09T00:03:42.678Z,257.92
2023-02-09T00:08:49.864Z,258.00
2023-02-09T00:13:57.010Z,257.57
2023-02-09T00:19:04.186Z,257.47
2023-02-09T00:24:11.428Z,256.51
2023-02-09T00:29:18.677Z,256.90
2023-02-09T00:34:25.830Z,257.08
2023-02-09T00:39:33.359Z,257.29
2023-02-09T00:44:40.559Z,256.51
2023-02-09T00:49:47.799Z,256.21
2023-02-09T00:54:55.104Z,255.77
2023-02-09T01:00:02.263Z,255.58
2023-02-09T01:05:09.468Z,256.13
2023-02-09T01:10:16.635Z,255.72
2023-02-09T01:15:23.818Z,255.76
2023-02-09T01:20:31.214Z,256.16
2023-02-09T01:25:38.524Z,256.14
2023-02-09T01:30:46.047Z,256.28
2023-02-09T01:35:52.856Z,256.91
2023-02-09T01:41:00.166Z,257.72
2023-02-09T01:46:07.338Z,258.23
2023-02-09T01:51:14.717Z,258.66
2023-02-09T01:56:21.942Z,259.62
2023-02-09T02:01:29.323Z,260.39
2023-02-09T02:06:36.474Z,260.57
2023-02-09T02:11:43.796Z,260.68
2023-02-09T02:16:51.076Z,261.19
2023-02-09T02:21:58.439Z,261.25
2023-02-09T02:27:05.678Z,261.43
2023-02-09T02:32:12.809Z,261.50
2023-02-09T02:37:20.032Z,261.65
2023-02-09T02:42:27.326Z,261.70
2023-02-09T02:47:34.573Z,261.62
2023-02-09T02:52:41.751Z,261.67
2023-02-09T02:57:49.241Z,261.58
2023-02-09T03:02:56.422Z,262.32
2023-02-09T03:08:03.638Z,262.88
2023-02-09T03:13:10.955Z,262.76
2023-02-09T03:18:18.245Z,263.08
2023-02-09T03:23:25.486Z,262.52
2023-02-09T03:28:33.061Z,262.81
2023-02-09T03:33:40.380Z,261.83
2023-02-09T03:38:47.665Z,261.21
2023-02-09T03:43:55.024Z,260.68
2023-02-09T03:49:02.269Z,261.40
2023-02-09T03:54:09.585Z,260.98
2023-02-09T03:59:16.785Z,260.74
2023-02-09T04:04:23.942Z,260.87
2023-02-09T04:09:31.116Z,260.27
2023-02-09T04:14:38.322Z,260.35
2023-02-09T04:19:45.581Z,260.34
2023-02-09T04:24:52.792Z,259.81
2023-02-09T04:30:00.040Z,258.38
2023-02-09T04:35:07.176Z,258.02
2023-02-09T04:40:14.397Z,257.16
2023-02-09T04:45:21.615Z,256.04
2023-02-09T04:50:28.764Z,255.86
2023-02-09T04:55:36.093Z,255.97
2023-02-09T05:00:43.709Z,255.73
2023-02-09T05:05:50.508Z,254.43
2023-02-09T05:10:58.645Z,254.08
2023-02-09T05:16:05.962Z,253.87
2023-02-09T05:21:13.036Z,253.48
2023-02-09T05:26:20.375Z,253.71
2023-02-09T05:31:27.863Z,253.49
2023-02-09T05:36:34.847Z,253.63
2023-02-09T05:41:42.036Z,253.09
2023-02-09T05:46:49.219Z,253.38
2023-02-09T05:51:56.344Z,253.73
2023-02-09T05:57:03.496Z,253.38
2023-02-09T06:02:10.767Z,252.75
2023-02-09T06:07:17.871Z,252.16
2023-02-09T06:12:25.100Z,251.55
2023-02-09T06:17:32.397Z,251.72
2023-02-09T06:22:39.626Z,251.55
2023-02-09T06:27:46.990Z,251.52
2023-02-09T06:32:54.245Z,250.76
2023-02-09T06:38:01.412Z,251.37
2023-02-09T06:43:08.694Z,250.74
2023-02-09T06:48:15.982Z,250.21
2023-02-09T06:53:23.159Z,250.57
2023-02-09T06:58:30.312Z,250.64
2023-02-09T07:03:37.556Z,251.09
2023-02-09T07:08:44.805Z,250.60
2023-02-09T07:13:51.959Z,250.41
2023-02-09T07:19:00.370Z,250.31
2023-02-09T07:24:06.602Z,250.20
2023-02-09T07:29:13.798Z,250.59
2023-02-09T07:34:21.027Z,250.51
2023-02-09T07:39:28.182Z,249.84
2023-02-09T07:44:35.359Z,249.22
2023-02-09T07:49:42.591Z,249.42
2023-02-09T07:54:50.324Z,248.87
2023-02-09T07:59:57.521Z,249.21
2023-02-09T08:05:05.097Z,248.95
2023-02-09T08:10:12.089Z,249.02
2023-02-09T08:15:19.276Z,248.96
2023-02-09T08:20:26.490Z,248.47
2023-02-09T08:25:33.640Z,248.85
2023-02-09T08:30:40.865Z,248.93
2023-02-09T08:35:48.398Z,247.14
2023-02-09T08:40:55.209Z,249.53
2023-02-09T08:46:02.485Z,249.39
2023-02-09T08:51:09.589Z,249.35
2023-02-09T08:56:16.761Z,249.09
2023-02-09T09:01:24.016Z,249.36
2023-02-09T09:06:31.177Z,250.03
2023-02-09T09:11:38.306Z,249.18
2023-02-09T09:16:45.566Z,248.98
2023-02-09T09:21:52.790Z,248.73
2023-02-09T09:26:59.962Z,249.21
2023-02-09T09:32:07.233Z,249.29
2023-02-09T09:37:14.370Z,249.43
2023-02-09T09:42:21.551Z,249.16
2023-02-09T09:47:28.755Z,248.97
2023-02-09T09:52:36.012Z,249.75
2023-02-09T09:57:43.176Z,249.42
2023-02-09T10:02:50.376Z,249.01
2023-02-09T10:07:57.594Z,248.41
2023-02-09T10:13:08.633Z,247.74
2023-02-09T10:18:16.521Z,248.35
2023-02-09T10:23:23.863Z,248.28
2023-02-09T10:28:36.474Z,248.37
2023-02-09T10:33:43.727Z,248.60
2023-02-09T10:38:51.106Z,248.34
2023-02-09T10:43:58.299Z,248.52
2023-02-09T10:49:05.500Z,249.24
2023-02-09T10:54:12.726Z,249.79
2023-02-09T10:59:19.925Z,249.49
2023-02-09T11:04:27.420Z,249.48
2023-02-09T11:09:34.449Z,250.39
2023-02-09T11:14:41.650Z,251.13
2023-02-09T11:19:48.927Z,250.62
2023-02-09T11:24:56.193Z,250.87
2023-02-09T11:30:03.349Z,251.65
2023-02-09T11:35:10.632Z,251.59
2023-02-09T11:40:17.859Z,251.83
2023-02-09T11:45:24.988Z,253.01
2023-02-09T11:50:32.169Z,253.06
2023-02-09T11:55:39.396Z,254.15
2023-02-09T12:00:54.716Z,254.71
2023-02-09T12:05:53.793Z,254.98
2023-02-09T12:11:01.072Z,255.37
2023-02-09T12:16:08.291Z,255.97
2023-02-09T12:21:15.498Z,256.89
2023-02-09T12:26:22.734Z,257.20
2023-02-09T12:31:30.008Z,257.58
2023-02-09T12:36:37.154Z,257.73
2023-02-09T12:41:44.428Z,258.39
2023-02-09T12:46:51.609Z,258.92
2023-02-09T12:51:58.826Z,259.58
2023-02-09T12:57:06.081Z,260.25
2023-02-09T13:02:13.284Z,259.52
2023-02-09T13:07:20.581Z,259.00
2023-02-09T13:12:27.803Z,259.14
2023-02-09T13:17:35.125Z,258.91
2023-02-09T13:22:42.295Z,258.73
2023-02-09T13:27:49.524Z,259.26
2023-02-09T13:32:56.706Z,259.04
2023-02-09T13:38:03.880Z,259.72
2023-02-09T13:43:11.111Z,258.99
2023-02-09T13:48:18.895Z,259.09
2023-02-09T13:53:26.126Z,259.26
2023-02-09T13:58:33.376Z,259.55
2023-02-09T14:03:47.036Z,259.16
2023-02-09T14:08:47.668Z,259.47
2023-02-09T14:13:54.897Z,259.42
2023-02-09T14:19:02.067Z,259.24
2023-02-09T14:24:11.727Z,259.31
2023-02-09T14:29:18.101Z,259.08
2023-02-09T14:34:23.888Z,259.16
2023-02-09T14:39:31.062Z,259.25
2023-02-09T14:44:38.292Z,259.73
2023-02-09T14:49:45.440Z,259.71
2023-02-09T14:54:52.694Z,259.70
2023-02-09T14:59:59.919Z,259.82
2023-02-09T15:05:07.107Z,259.27
2023-02-09T15:10:14.268Z,259.50
2023-02-09T15:15:21.469Z,259.55
2023-02-09T15:20:28.658Z,259.66
2023-02-09T15:25:35.901Z,259.12
2023-02-09T15:30:43.405Z,258.22
2023-02-09T15:35:50.772Z,257.74
2023-02-09T15:40:58.498Z,257.07
2023-02-09T15:46:05.992Z,256.95
2023-02-09T15:51:13.337Z,256.47
2023-02-09T15:56:20.738Z,256.18
2023-02-09T16:01:27.975Z,255.73
2023-02-09T16:06:35.157Z,255.01
2023-02-09T16:11:42.752Z,254.76
2023-02-09T16:16:50.258Z,254.45
2023-02-09T16:21:57.398Z,254.04
2023-02-09T16:27:04.569Z,253.32
2023-02-09T16:32:12.131Z,252.56
2023-02-09T16:37:19.400Z,252.23
2023-02-09T16:42:26.618Z,252.02
2023-02-09T16:47:33.838Z,251.62
2023-02-09T16:52:41.058Z,250.91
2023-02-09T16:57:48.291Z,249.94
2023-02-09T17:02:55.494Z,248.85
2023-02-09T17:08:03.018Z,248.24
2023-02-09T17:13:10.363Z,247.47
2023-02-09T17:18:17.862Z,247.23
2023-02-09T17:23:25.279Z,246.60
2023-02-09T17:28:32.868Z,246.11
2023-02-09T17:33:40.143Z,245.53
2023-02-09T17:38:47.423Z,245.16
2023-02-09T17:43:54.902Z,244.95
2023-02-09T17:49:02.471Z,245.27
2023-02-09T17:54:11.427Z,245.20
2023-02-09T17:59:18.884Z,244.77
2023-02-09T18:04:26.841Z,243.84
2023-02-09T18:09:34.002Z,243.84
2023-02-09T18:14:41.302Z,243.42
2023-02-09T18:19:48.823Z,242.95
2023-02-09T18:24:56.523Z,242.60
2023-02-09T18:30:04.234Z,242.68
2023-02-09T18:35:11.931Z,242.30
2023-02-09T18:40:19.682Z,242.27
2023-02-09T18:45:27.387Z,242.08
2023-02-09T18:50:35.120Z,241.97
2023-02-09T18:55:42.717Z,241.76
2023-02-09T19:00:50.333Z,240.46
2023-02-09T19:05:58.082Z,239.36
2023-02-09T19:11:05.664Z,239.18
2023-02-09T19:16:13.308Z,238.88
2023-02-09T19:21:20.811Z,238.15
2023-02-09T19:26:28.607Z,238.13
2023-02-09T19:31:36.229Z,238.71
2023-02-09T19:36:43.547Z,239.65
2023-02-09T19:41:51.041Z,239.20
2023-02-09T19:46:58.787Z,238.80
2023-02-09T19:52:06.110Z,238.82
2023-02-09T19:57:13.531Z,239.26
2023-02-09T20:02:21.293Z,238.95
2023-02-09T20:07:28.888Z,238.20
2023-02-09T20:12:37.038Z,238.17
2023-02-09T20:17:44.469Z,237.80
2023-02-09T20:22:52.196Z,236.80
2023-02-09T20:27:59.825Z,237.61
2023-02-09T20:33:07.099Z,237.29
2023-02-09T20:38:14.640Z,236.80
2023-02-09T20:43:22.411Z,237.24
2023-02-09T20:48:30.027Z,236.36
2023-02-09T20:53:37.366Z,235.63
2023-02-09T20:58:44.504Z,235.12
2023-02-09T21:03:51.948Z,235.24
2023-02-09T21:08:59.484Z,235.76
2023-02-09T21:14:06.828Z,234.90
2023-02-09T21:19:15.407Z,234.79
2023-02-09T21:24:22.795Z,234.84
2023-02-09T21:29:30.054Z,234.87
2023-02-09T21:34:37.534Z,234.69
2023-02-09T21:39:44.924Z,234.46
2023-02-09T21:44:52.352Z,234.06
2023-02-09T21:49:59.661Z,233.22
2023-02-09T21:55:06.876Z,232.29
2023-02-09T22:00:14.046Z,231.40
2023-02-09T22:05:21.217Z,230.56
2023-02-09T22:10:28.431Z,230.53
2023-02-09T22:15:35.597Z,230.00
2023-02-09T22:20:42.782Z,229.21
2023-02-09T22:25:49.963Z,229.24
2023-02-09T22:30:57.206Z,228.42
2023-02-09T22:36:04.401Z,228.46
2023-02-09T22:41:11.630Z,228.21
2023-02-09T22:46:18.942Z,227.44
2023-02-09T22:51:26.092Z,226.86
2023-02-09T22:56:33.379Z,226.60
2023-02-09T23:01:40.612Z,226.09
2023-02-09T23:06:47.745Z,225.44
2023-02-09T23:11:54.997Z,225.17
2023-02-09T23:17:02.220Z,225.46
2023-02-09T23:22:09.393Z,226.08
2023-02-09T23:27:16.604Z,226.49
2023-02-09T23:32:23.764Z,227.48
2023-02-09T23:37:37.624Z,228.06
2023-02-09T23:42:38.170Z,227.86
2023-02-09T23:47:45.517Z,226.92
2023-02-09T23:52:52.705Z,226.95
2023-02-09T23:57:59.952Z,227.33
